sensor_id;sensor_type;location;lat;lon;timestamp;pressure;altitude;pressure_sealevel;temperature;humidity
1954;BME280;977;42.704;23.354;2022-07-03T00:01:32;95556.66;;;20.83;100.00
1954;BME280;977;42.704;23.354;2022-07-03T00:03:58;95560.00;;;20.78;100.00
1954;BME280;977;42.704;23.354;2022-07-03T00:06:24;95566.09;;;20.79;100.00
1954;BME280;977;42.704;23.354;2022-07-03T00:08:50;95567.16;;;20.66;100.00
1954;BME280;977;42.704;23.354;2022-07-03T00:11:15;95569.56;;;20.67;100.00
1954;BME280;977;42.704;23.354;2022-07-03T00:13:41;95568.53;;;20.68;100.00
1954;BME280;977;42.704;23.354;2022-07-03T00:16:06;95561.50;;;20.62;100.00
1954;BME280;977;42.704;23.354;2022-07-03T00:18:32;95558.97;;;20.56;100.00
1954;BME280;977;42.704;23.354;2022-07-03T00:21:04;95551.28;;;20.54;100.00
1954;BME280;977;42.704;23.354;2022-07-03T00:23:39;95551.03;;;20.56;100.00
1954;BME280;977;42.704;23.354;2022-07-03T00:26:05;95554.03;;;20.59;100.00
1954;BME280;977;42.704;23.354;2022-07-03T00:28:31;95547.94;;;20.71;100.00
1954;BME280;977;42.704;23.354;2022-07-03T00:31:00;95548.38;;;20.79;100.00
1954;BME280;977;42.704;23.354;2022-07-03T00:33:27;95550.13;;;20.74;100.00
1954;BME280;977;42.704;23.354;2022-07-03T00:35:54;95545.63;;;20.51;100.00
1954;BME280;977;42.704;23.354;2022-07-03T00:38:27;95544.09;;;20.31;100.00
1954;BME280;977;42.704;23.354;2022-07-03T00:40:53;95540.53;;;20.26;100.00
1954;BME280;977;42.704;23.354;2022-07-03T00:43:25;95542.25;;;20.20;100.00
1954;BME280;977;42.704;23.354;2022-07-03T00:45:53;95541.44;;;20.20;100.00
1954;BME280;977;42.704;23.354;2022-07-03T00:48:19;95538.56;;;20.21;100.00
1954;BME280;977;42.704;23.354;2022-07-03T00:50:52;95542.13;;;20.27;100.00
1954;BME280;977;42.704;23.354;2022-07-03T00:53:28;95540.06;;;20.29;100.00
1954;BME280;977;42.704;23.354;2022-07-03T00:55:55;95532.28;;;20.34;100.00
1954;BME280;977;42.704;23.354;2022-07-03T00:58:21;95536.19;;;20.43;100.00
1954;BME280;977;42.704;23.354;2022-07-03T01:00:51;95530.34;;;20.53;100.00
1954;BME280;977;42.704;23.354;2022-07-03T01:03:19;95523.78;;;20.55;100.00
1954;BME280;977;42.704;23.354;2022-07-03T01:05:50;95527.13;;;20.62;100.00
1954;BME280;977;42.704;23.354;2022-07-03T01:08:41;95529.31;;;20.54;100.00
1954;BME280;977;42.704;23.354;2022-07-03T01:11:38;95521.00;;;20.38;100.00
1954;BME280;977;42.704;23.354;2022-07-03T01:14:38;95521.22;;;20.37;100.00
1954;BME280;977;42.704;23.354;2022-07-03T01:17:25;95512.72;;;20.35;100.00
1954;BME280;977;42.704;23.354;2022-07-03T01:20:01;95516.50;;;20.27;100.00
1954;BME280;977;42.704;23.354;2022-07-03T01:22:45;95513.75;;;20.22;100.00
1954;BME280;977;42.704;23.354;2022-07-03T01:25:16;95517.41;;;20.21;100.00
1954;BME280;977;42.704;23.354;2022-07-03T01:30:50;95513.06;;;20.27;100.00
1954;BME280;977;42.704;23.354;2022-07-03T01:33:29;95515.69;;;20.27;100.00
1954;BME280;977;42.704;23.354;2022-07-03T01:38:33;95518.00;;;20.35;100.00
1954;BME280;977;42.704;23.354;2022-07-03T01:41:01;95511.34;;;20.44;100.00
1954;BME280;977;42.704;23.354;2022-07-03T01:43:29;95513.09;;;20.50;100.00
1954;BME280;977;42.704;23.354;2022-07-03T01:46:00;95523.22;;;20.53;100.00
1954;BME280;977;42.704;23.354;2022-07-03T01:48:27;95516.44;;;20.57;100.00
1954;BME280;977;42.704;23.354;2022-07-03T01:50:55;95518.84;;;20.59;100.00
1954;BME280;977;42.704;23.354;2022-07-03T01:53:23;95520.44;;;20.60;100.00
1954;BME280;977;42.704;23.354;2022-07-03T01:55:50;95523.00;;;20.66;100.00
1954;BME280;977;42.704;23.354;2022-07-03T01:58:16;95525.16;;;20.70;100.00
1954;BME280;977;42.704;23.354;2022-07-03T02:03:10;95525.88;;;20.77;100.00
1954;BME280;977;42.704;23.354;2022-07-03T02:05:42;95523.09;;;20.72;100.00
1954;BME280;977;42.704;23.354;2022-07-03T02:09:02;95523.09;;;20.72;100.00
1954;BME280;977;42.704;23.354;2022-07-03T02:11:20;95522.97;;;20.78;100.00
1954;BME280;977;42.704;23.354;2022-07-03T02:19:11;95526.88;;;20.87;100.00
1954;BME280;977;42.704;23.354;2022-07-03T02:21:40;95528.84;;;20.92;100.00
1954;BME280;977;42.704;23.354;2022-07-03T02:24:17;95526.19;;;20.92;100.00
1954;BME280;977;42.704;23.354;2022-07-03T02:27:07;95523.88;;;20.96;100.00
1954;BME280;977;42.704;23.354;2022-07-03T02:29:41;95522.50;;;20.93;100.00
1954;BME280;977;42.704;23.354;2022-07-03T02:32:12;95526.88;;;20.87;100.00
1954;BME280;977;42.704;23.354;2022-07-03T02:34:44;95527.56;;;20.83;100.00
1954;BME280;977;42.704;23.354;2022-07-03T02:37:15;95523.31;;;20.82;100.00
1954;BME280;977;42.704;23.354;2022-07-03T02:39:50;95530.69;;;20.80;100.00
1954;BME280;977;42.704;23.354;2022-07-03T02:45:31;95529.44;;;20.71;100.00
1954;BME280;977;42.704;23.354;2022-07-03T02:48:29;95538.19;;;20.71;100.00
1954;BME280;977;42.704;23.354;2022-07-03T02:51:04;95537.25;;;20.65;100.00
1954;BME280;977;42.704;23.354;2022-07-03T02:53:38;95540.22;;;20.69;100.00
1954;BME280;977;42.704;23.354;2022-07-03T02:56:15;95536.44;;;20.65;100.00
1954;BME280;977;42.704;23.354;2022-07-03T03:04:22;95549.56;;;20.72;100.00
1954;BME280;977;42.704;23.354;2022-07-03T03:07:02;95547.47;;;20.74;100.00
1954;BME280;977;42.704;23.354;2022-07-03T03:09:49;95548.88;;;20.76;100.00
1954;BME280;977;42.704;23.354;2022-07-03T03:12:15;95548.38;;;20.79;100.00
1954;BME280;977;42.704;23.354;2022-07-03T03:14:48;95549.22;;;20.80;100.00
1954;BME280;977;42.704;23.354;2022-07-03T03:17:24;95548.19;;;20.81;100.00
1954;BME280;977;42.704;23.354;2022-07-03T03:19:55;95555.31;;;20.80;100.00
1954;BME280;977;42.704;23.354;2022-07-03T03:25:01;95556.22;;;20.86;100.00
1954;BME280;977;42.704;23.354;2022-07-03T03:27:28;95561.88;;;20.89;100.00
1954;BME280;977;42.704;23.354;2022-07-03T03:29:54;95566.47;;;20.94;100.00
1954;BME280;977;42.704;23.354;2022-07-03T03:32:20;95559.53;;;20.93;100.00
1954;BME280;977;42.704;23.354;2022-07-03T03:34:47;95561.06;;;20.89;100.00
1954;BME280;977;42.704;23.354;2022-07-03T03:37:12;95552.53;;;20.87;100.00
1954;BME280;977;42.704;23.354;2022-07-03T03:39:38;95556.88;;;20.93;100.00
1954;BME280;977;42.704;23.354;2022-07-03T03:42:04;95556.31;;;21.03;100.00
1954;BME280;977;42.704;23.354;2022-07-03T03:44:34;95558.59;;;21.11;100.00
1954;BME280;977;42.704;23.354;2022-07-03T03:47:00;95556.06;;;21.16;100.00
1954;BME280;977;42.704;23.354;2022-07-03T03:49:26;95563.28;;;21.21;100.00
1954;BME280;977;42.704;23.354;2022-07-03T03:51:52;95574.22;;;21.24;100.00
1954;BME280;977;42.704;23.354;2022-07-03T03:54:18;95568.94;;;21.24;100.00
1954;BME280;977;42.704;23.354;2022-07-03T03:56:43;95563.41;;;21.26;100.00
1954;BME280;977;42.704;23.354;2022-07-03T03:59:09;95558.81;;;21.33;100.00
1954;BME280;977;42.704;23.354;2022-07-03T04:01:34;95558.94;;;21.38;100.00
1954;BME280;977;42.704;23.354;2022-07-03T04:04:00;95557.97;;;21.44;100.00
1954;BME280;977;42.704;23.354;2022-07-03T04:06:25;95562.34;;;21.50;100.00
1954;BME280;977;42.704;23.354;2022-07-03T04:08:51;95569.00;;;21.64;100.00
1954;BME280;977;42.704;23.354;2022-07-03T04:11:17;95571.25;;;21.73;100.00
1954;BME280;977;42.704;23.354;2022-07-03T04:13:42;95569.81;;;21.82;100.00
1954;BME280;977;42.704;23.354;2022-07-03T04:16:08;95563.09;;;21.91;100.00
1954;BME280;977;42.704;23.354;2022-07-03T04:18:33;95566.50;;;22.03;100.00
1954;BME280;977;42.704;23.354;2022-07-03T04:21:00;95562.47;;;22.12;100.00
1954;BME280;977;42.704;23.354;2022-07-03T04:23:25;95560.09;;;22.16;100.00
1954;BME280;977;42.704;23.354;2022-07-03T04:25:51;95559.44;;;22.09;100.00
1954;BME280;977;42.704;23.354;2022-07-03T04:28:16;95558.28;;;22.16;100.00
1954;BME280;977;42.704;23.354;2022-07-03T04:30:41;95552.56;;;22.25;100.00
1954;BME280;977;42.704;23.354;2022-07-03T04:33:07;95554.34;;;22.19;100.00
1954;BME280;977;42.704;23.354;2022-07-03T04:35:32;95555.13;;;22.19;100.00
1954;BME280;977;42.704;23.354;2022-07-03T04:37:58;95554.34;;;22.19;100.00
1954;BME280;977;42.704;23.354;2022-07-03T04:40:23;95551.78;;;22.41;100.00
1954;BME280;977;42.704;23.354;2022-07-03T04:42:49;95562.88;;;22.38;100.00
1954;BME280;977;42.704;23.354;2022-07-03T04:45:14;95562.16;;;22.59;100.00
1954;BME280;977;42.704;23.354;2022-07-03T04:47:40;95556.09;;;22.81;100.00
1954;BME280;977;42.704;23.354;2022-07-03T04:50:06;95565.25;;;23.07;100.00
1954;BME280;977;42.704;23.354;2022-07-03T04:52:31;95563.53;;;23.17;100.00
1954;BME280;977;42.704;23.354;2022-07-03T04:54:57;95560.25;;;23.10;100.00
1954;BME280;977;42.704;23.354;2022-07-03T04:57:22;95565.63;;;23.15;100.00
1954;BME280;977;42.704;23.354;2022-07-03T04:59:47;95567.31;;;23.43;100.00
1954;BME280;977;42.704;23.354;2022-07-03T05:02:13;95562.97;;;23.59;100.00
1954;BME280;977;42.704;23.354;2022-07-03T05:04:38;95567.44;;;23.76;100.00
1954;BME280;977;42.704;23.354;2022-07-03T05:07:04;95554.00;;;23.87;100.00
1954;BME280;977;42.704;23.354;2022-07-03T05:09:30;95551.31;;;24.09;100.00
1954;BME280;977;42.704;23.354;2022-07-03T05:11:55;95557.34;;;24.32;100.00
1954;BME280;977;42.704;23.354;2022-07-03T05:14:21;95549.97;;;24.39;100.00
1954;BME280;977;42.704;23.354;2022-07-03T05:16:46;95554.59;;;24.48;99.15
1954;BME280;977;42.704;23.354;2022-07-03T05:19:12;95557.25;;;24.48;98.56
1954;BME280;977;42.704;23.354;2022-07-03T05:21:37;95552.69;;;24.44;98.44
1954;BME280;977;42.704;23.354;2022-07-03T05:24:03;95558.72;;;24.66;95.38
1954;BME280;977;42.704;23.354;2022-07-03T05:26:28;95555.63;;;24.80;92.70
1954;BME280;977;42.704;23.354;2022-07-03T05:28:54;95554.03;;;24.89;91.51
1954;BME280;977;42.704;23.354;2022-07-03T05:31:19;95557.31;;;25.01;90.02
1954;BME280;977;42.704;23.354;2022-07-03T05:33:45;95560.25;;;24.99;89.15
1954;BME280;977;42.704;23.354;2022-07-03T05:36:11;95561.06;;;25.00;88.02
1954;BME280;977;42.704;23.354;2022-07-03T05:38:36;95559.78;;;25.08;86.76
1954;BME280;977;42.704;23.354;2022-07-03T05:41:20;95564.91;;;25.19;85.08
1954;BME280;977;42.704;23.354;2022-07-03T05:43:46;95574.56;;;25.36;82.88
1954;BME280;977;42.704;23.354;2022-07-03T05:46:11;95565.09;;;25.60;80.86
1954;BME280;977;42.704;23.354;2022-07-03T05:48:37;95571.59;;;25.80;77.42
1954;BME280;977;42.704;23.354;2022-07-03T05:51:03;95574.56;;;26.04;75.52
1954;BME280;977;42.704;23.354;2022-07-03T05:53:29;95573.28;;;26.32;74.08
1954;BME280;977;42.704;23.354;2022-07-03T05:55:55;95573.84;;;26.44;72.69
1954;BME280;977;42.704;23.354;2022-07-03T05:58:20;95566.09;;;26.63;71.85
1954;BME280;977;42.704;23.354;2022-07-03T06:00:46;95564.22;;;26.84;70.74
1954;BME280;977;42.704;23.354;2022-07-03T06:03:11;95567.41;;;26.81;71.08
1954;BME280;977;42.704;23.354;2022-07-03T06:05:37;95571.69;;;26.76;69.68
1954;BME280;977;42.704;23.354;2022-07-03T06:08:04;95567.97;;;26.78;69.28
1954;BME280;977;42.704;23.354;2022-07-03T06:10:29;95568.50;;;26.74;69.17
1954;BME280;977;42.704;23.354;2022-07-03T06:12:55;95567.97;;;26.72;68.14
1954;BME280;977;42.704;23.354;2022-07-03T06:15:21;95577.03;;;26.56;68.30
1954;BME280;977;42.704;23.354;2022-07-03T06:17:46;95576.75;;;26.42;68.74
1954;BME280;977;42.704;23.354;2022-07-03T06:20:12;95579.97;;;26.85;67.56
1954;BME280;977;42.704;23.354;2022-07-03T06:22:39;95570.88;;;26.81;66.95
1954;BME280;977;42.704;23.354;2022-07-03T06:25:06;95578.38;;;26.54;68.56
1954;BME280;977;42.704;23.354;2022-07-03T06:27:31;95579.94;;;26.34;69.96
1954;BME280;977;42.704;23.354;2022-07-03T06:29:57;95573.31;;;26.47;71.14
1954;BME280;977;42.704;23.354;2022-07-03T06:32:23;95569.84;;;26.62;69.56
1954;BME280;977;42.704;23.354;2022-07-03T06:34:48;95581.56;;;26.76;67.40
1954;BME280;977;42.704;23.354;2022-07-03T06:37:14;95574.88;;;26.99;67.58
1954;BME280;977;42.704;23.354;2022-07-03T06:39:40;95579.69;;;27.02;65.19
1954;BME280;977;42.704;23.354;2022-07-03T06:42:05;95579.59;;;27.38;63.94
1954;BME280;977;42.704;23.354;2022-07-03T06:44:31;95583.25;;;27.72;62.15
1954;BME280;977;42.704;23.354;2022-07-03T06:46:56;95568.16;;;27.92;61.15
1954;BME280;977;42.704;23.354;2022-07-03T06:49:22;95569.78;;;27.88;60.79
1954;BME280;977;42.704;23.354;2022-07-03T06:51:48;95569.78;;;27.88;60.15
1954;BME280;977;42.704;23.354;2022-07-03T06:54:14;95566.47;;;28.06;60.42
1954;BME280;977;42.704;23.354;2022-07-03T06:56:40;95566.53;;;28.40;59.26
1954;BME280;977;42.704;23.354;2022-07-03T06:59:07;95575.78;;;28.58;58.63
1954;BME280;977;42.704;23.354;2022-07-03T07:01:33;95571.47;;;28.62;57.36
1954;BME280;977;42.704;23.354;2022-07-03T07:03:58;95563.56;;;28.76;57.73
1954;BME280;977;42.704;23.354;2022-07-03T07:06:24;95559.22;;;29.14;56.95
1954;BME280;977;42.704;23.354;2022-07-03T07:08:49;95555.25;;;29.31;55.33
1954;BME280;977;42.704;23.354;2022-07-03T07:11:14;95563.09;;;29.51;54.73
1954;BME280;977;42.704;23.354;2022-07-03T07:13:40;95562.19;;;29.37;55.36
1954;BME280;977;42.704;23.354;2022-07-03T07:16:06;95552.00;;;29.10;56.49
1954;BME280;977;42.704;23.354;2022-07-03T07:18:31;95557.84;;;29.41;55.18
1954;BME280;977;42.704;23.354;2022-07-03T07:20:57;95561.25;;;29.70;54.78
1954;BME280;977;42.704;23.354;2022-07-03T07:23:22;95556.13;;;29.93;52.97
1954;BME280;977;42.704;23.354;2022-07-03T07:25:48;95542.19;;;29.72;53.29
1954;BME280;977;42.704;23.354;2022-07-03T07:28:13;95555.03;;;29.51;54.69
1954;BME280;977;42.704;23.354;2022-07-03T07:30:39;95552.41;;;28.35;56.93
1954;BME280;977;42.704;23.354;2022-07-03T07:33:06;95544.69;;;27.09;60.85
1954;BME280;977;42.704;23.354;2022-07-03T07:35:31;95542.88;;;26.48;63.87
1954;BME280;977;42.704;23.354;2022-07-03T07:37:57;95540.69;;;26.35;65.06
1954;BME280;977;42.704;23.354;2022-07-03T07:40:22;95537.53;;;26.63;64.21
1954;BME280;977;42.704;23.354;2022-07-03T07:42:48;95544.63;;;27.24;63.20
1954;BME280;977;42.704;23.354;2022-07-03T07:45:13;95542.78;;;27.19;63.51
1954;BME280;977;42.704;23.354;2022-07-03T07:47:39;95549.28;;;26.78;63.41
1954;BME280;977;42.704;23.354;2022-07-03T07:50:05;95536.44;;;26.85;64.03
1954;BME280;977;42.704;23.354;2022-07-03T07:52:31;95541.75;;;27.15;63.53
1954;BME280;977;42.704;23.354;2022-07-03T07:54:56;95548.59;;;27.42;61.17
1954;BME280;977;42.704;23.354;2022-07-03T07:57:22;95535.16;;;27.52;59.62
1954;BME280;977;42.704;23.354;2022-07-03T07:59:47;95533.91;;;27.94;58.46
1954;BME280;977;42.704;23.354;2022-07-03T08:02:13;95536.75;;;28.52;56.57
1954;BME280;977;42.704;23.354;2022-07-03T08:04:57;95531.81;;;29.41;53.65
1954;BME280;977;42.704;23.354;2022-07-03T08:07:40;95526.97;;;30.05;51.90
1954;BME280;977;42.704;23.354;2022-07-03T08:10:07;95522.31;;;30.11;51.92
1954;BME280;977;42.704;23.354;2022-07-03T08:12:33;95529.31;;;30.31;51.33
1954;BME280;977;42.704;23.354;2022-07-03T08:14:58;95523.00;;;30.21;51.75
1954;BME280;977;42.704;23.354;2022-07-03T08:17:24;95510.56;;;30.07;51.07
1954;BME280;977;42.704;23.354;2022-07-03T08:19:49;95518.34;;;29.70;52.21
1954;BME280;977;42.704;23.354;2022-07-03T08:22:14;95518.63;;;30.07;52.07
1954;BME280;977;42.704;23.354;2022-07-03T08:24:40;95524.28;;;30.05;52.24
1954;BME280;977;42.704;23.354;2022-07-03T08:27:05;95522.22;;;30.35;51.92
1954;BME280;977;42.704;23.354;2022-07-03T08:29:32;95514.09;;;30.72;51.00
1954;BME280;977;42.704;23.354;2022-07-03T08:31:58;95531.06;;;30.87;50.58
1954;BME280;977;42.704;23.354;2022-07-03T08:34:23;95515.13;;;29.68;53.15
1954;BME280;977;42.704;23.354;2022-07-03T08:36:49;95533.06;;;29.01;55.97
1954;BME280;977;42.704;23.354;2022-07-03T08:39:15;95520.81;;;29.19;57.31
1954;BME280;977;42.704;23.354;2022-07-03T08:41:41;95523.34;;;29.96;54.38
1954;BME280;977;42.704;23.354;2022-07-03T08:44:13;95518.94;;;30.70;51.49
1954;BME280;977;42.704;23.354;2022-07-03T08:46:40;95515.94;;;31.18;50.43
1954;BME280;977;42.704;23.354;2022-07-03T08:49:11;95518.28;;;31.39;49.98
1954;BME280;977;42.704;23.354;2022-07-03T08:51:37;95510.16;;;30.18;52.74
1954;BME280;977;42.704;23.354;2022-07-03T08:54:05;95516.84;;;30.35;53.05
1954;BME280;977;42.704;23.354;2022-07-03T08:56:32;95511.25;;;30.83;52.29
1954;BME280;977;42.704;23.354;2022-07-03T08:58:58;95509.78;;;31.18;50.24
1954;BME280;977;42.704;23.354;2022-07-03T09:01:24;95510.66;;;31.54;48.97
1954;BME280;977;42.704;23.354;2022-07-03T09:03:51;95514.44;;;31.67;49.29
1954;BME280;977;42.704;23.354;2022-07-03T09:06:18;95511.16;;;31.01;47.68
1954;BME280;977;42.704;23.354;2022-07-03T09:08:44;95508.78;;;31.14;49.17
1954;BME280;977;42.704;23.354;2022-07-03T09:11:11;95502.91;;;31.25;48.16
1954;BME280;977;42.704;23.354;2022-07-03T09:13:36;95503.88;;;31.57;47.63
1954;BME280;977;42.704;23.354;2022-07-03T09:16:02;95506.63;;;31.29;48.56
1954;BME280;977;42.704;23.354;2022-07-03T09:18:43;95490.72;;;31.69;47.03
1954;BME280;977;42.704;23.354;2022-07-03T09:21:09;95499.13;;;31.54;47.86
1954;BME280;977;42.704;23.354;2022-07-03T09:23:40;95497.03;;;32.01;46.17
1954;BME280;977;42.704;23.354;2022-07-03T09:26:12;95496.06;;;32.42;44.53
1954;BME280;977;42.704;23.354;2022-07-03T09:28:52;95496.00;;;32.11;45.13
1954;BME280;977;42.704;23.354;2022-07-03T09:31:20;95494.88;;;31.75;44.54
1954;BME280;977;42.704;23.354;2022-07-03T09:33:57;95492.28;;;31.70;45.17
1954;BME280;977;42.704;23.354;2022-07-03T09:36:38;95490.34;;;31.98;45.58
1954;BME280;977;42.704;23.354;2022-07-03T09:39:16;95492.75;;;32.22;43.71
1954;BME280;977;42.704;23.354;2022-07-03T09:42:02;95490.22;;;31.67;44.95
1954;BME280;977;42.704;23.354;2022-07-03T09:44:44;95486.78;;;31.39;45.33
1954;BME280;977;42.704;23.354;2022-07-03T09:47:37;95488.28;;;31.95;44.33
1954;BME280;977;42.704;23.354;2022-07-03T09:50:03;95494.69;;;32.08;45.29
1954;BME280;977;42.704;23.354;2022-07-03T09:52:43;95491.16;;;31.49;44.23
1954;BME280;977;42.704;23.354;2022-07-03T09:58:20;95476.03;;;31.39;44.47
1954;BME280;977;42.704;23.354;2022-07-03T10:00:30;95474.69;;;32.00;45.60
1954;BME280;977;42.704;23.354;2022-07-03T10:03:07;95479.00;;;32.77;42.79
1954;BME280;977;42.704;23.354;2022-07-03T10:05:38;95475.00;;;33.46;42.51
1954;BME280;977;42.704;23.354;2022-07-03T10:10:34;95464.53;;;32.73;43.09
1954;BME280;977;42.704;23.354;2022-07-03T10:13:00;95466.16;;;33.14;42.11
1954;BME280;977;42.704;23.354;2022-07-03T10:15:29;95467.16;;;33.36;41.80
1954;BME280;977;42.704;23.354;2022-07-03T10:17:58;95458.25;;;33.26;41.77
1954;BME280;977;42.704;23.354;2022-07-03T10:20:29;95453.34;;;33.28;42.61
1954;BME280;977;42.704;23.354;2022-07-03T10:22:56;95447.53;;;33.44;39.49
1954;BME280;977;42.704;23.354;2022-07-03T10:25:22;95457.84;;;33.59;38.99
1954;BME280;977;42.704;23.354;2022-07-03T10:27:48;95455.09;;;33.33;39.49
1954;BME280;977;42.704;23.354;2022-07-03T10:30:15;95447.47;;;32.87;38.81
1954;BME280;977;42.704;23.354;2022-07-03T10:32:44;95442.94;;;32.11;38.90
1954;BME280;977;42.704;23.354;2022-07-03T10:35:14;95448.19;;;31.94;39.08
1954;BME280;977;42.704;23.354;2022-07-03T10:43:21;95441.53;;;31.14;41.11
1954;BME280;977;42.704;23.354;2022-07-03T10:49:08;95434.22;;;30.92;42.33
1954;BME280;977;42.704;23.354;2022-07-03T10:59:24;95421.13;;;31.76;40.55
1954;BME280;977;42.704;23.354;2022-07-03T11:07:39;95416.94;;;31.70;37.83
1954;BME280;977;42.704;23.354;2022-07-03T11:13:11;95404.91;;;31.04;39.88
1954;BME280;977;42.704;23.354;2022-07-03T11:18:24;95401.34;;;30.95;39.13
1954;BME280;977;42.704;23.354;2022-07-03T11:24:31;95392.66;;;31.12;38.89
1954;BME280;977;42.704;23.354;2022-07-03T11:27:18;95387.09;;;31.58;38.35
1954;BME280;977;42.704;23.354;2022-07-03T11:29:52;95388.31;;;31.02;37.03
1954;BME280;977;42.704;23.354;2022-07-03T11:32:49;95396.63;;;30.32;37.99
1954;BME280;977;42.704;23.354;2022-07-03T11:35:43;95384.19;;;30.36;40.40
1954;BME280;977;42.704;23.354;2022-07-03T11:38:20;95372.50;;;30.87;38.90
1954;BME280;977;42.704;23.354;2022-07-03T11:40:48;95389.28;;;31.06;39.47
1954;BME280;977;42.704;23.354;2022-07-03T11:43:15;95376.63;;;31.20;39.41
1954;BME280;977;42.704;23.354;2022-07-03T11:45:41;95382.41;;;31.00;39.02
1954;BME280;977;42.704;23.354;2022-07-03T11:48:12;95374.97;;;30.83;40.62
1954;BME280;977;42.704;23.354;2022-07-03T11:50:43;95377.22;;;31.17;40.13
1954;BME280;977;42.704;23.354;2022-07-03T11:53:20;95356.25;;;31.42;40.70
1954;BME280;977;42.704;23.354;2022-07-03T11:55:49;95367.97;;;30.96;40.90
1954;BME280;977;42.704;23.354;2022-07-03T11:58:14;95348.56;;;30.99;40.20
1954;BME280;977;42.704;23.354;2022-07-03T12:00:40;95363.69;;;31.09;40.07
1954;BME280;977;42.704;23.354;2022-07-03T12:03:25;95371.16;;;30.70;40.78
1954;BME280;977;42.704;23.354;2022-07-03T12:06:00;95369.28;;;30.57;40.72
1954;BME280;977;42.704;23.354;2022-07-03T12:08:35;95348.78;;;30.89;38.39
1954;BME280;977;42.704;23.354;2022-07-03T12:11:01;95366.28;;;30.86;40.27
1954;BME280;977;42.704;23.354;2022-07-03T12:13:28;95353.94;;;30.99;40.02
1954;BME280;977;42.704;23.354;2022-07-03T12:16:03;95346.91;;;31.25;39.56
1954;BME280;977;42.704;23.354;2022-07-03T12:18:49;95357.94;;;31.01;40.43
1954;BME280;977;42.704;23.354;2022-07-03T12:21:21;95342.38;;;31.12;41.34
1954;BME280;977;42.704;23.354;2022-07-03T12:23:49;95354.31;;;31.34;41.06
1954;BME280;977;42.704;23.354;2022-07-03T12:26:35;95342.56;;;31.52;41.08
1954;BME280;977;42.704;23.354;2022-07-03T12:29:04;95349.25;;;31.54;40.59
1954;BME280;977;42.704;23.354;2022-07-03T12:31:31;95328.00;;;31.30;40.41
1954;BME280;977;42.704;23.354;2022-07-03T12:34:00;95348.50;;;31.26;42.12
1954;BME280;977;42.704;23.354;2022-07-03T12:36:26;95351.56;;;30.97;42.37
1954;BME280;977;42.704;23.354;2022-07-03T12:38:53;95334.56;;;30.61;43.17
1954;BME280;977;42.704;23.354;2022-07-03T12:41:20;95337.81;;;30.58;42.59
1954;BME280;977;42.704;23.354;2022-07-03T12:43:47;95342.13;;;30.72;42.86
1954;BME280;977;42.704;23.354;2022-07-03T12:48:58;95338.16;;;30.10;42.46
1954;BME280;977;42.704;23.354;2022-07-03T12:51:57;95340.22;;;30.18;42.26
1954;BME280;977;42.704;23.354;2022-07-03T12:54:31;95345.88;;;30.16;43.21
1954;BME280;977;42.704;23.354;2022-07-03T12:57:04;95331.88;;;30.47;42.98
1954;BME280;977;42.704;23.354;2022-07-03T13:02:28;95339.78;;;31.07;41.25
1954;BME280;977;42.704;23.354;2022-07-03T13:04:53;95323.09;;;30.69;39.78
1954;BME280;977;42.704;23.354;2022-07-03T13:07:22;95311.75;;;30.86;39.61
1954;BME280;977;42.704;23.354;2022-07-03T13:10:08;95334.94;;;30.82;40.72
1954;BME280;977;42.704;23.354;2022-07-03T13:12:34;95315.44;;;30.76;45.16
1954;BME280;977;42.704;23.354;2022-07-03T13:15:01;95340.13;;;30.64;47.08
1954;BME280;977;42.704;23.354;2022-07-03T13:20:30;95328.59;;;29.90;50.77
1954;BME280;977;42.704;23.354;2022-07-03T13:22:59;95328.06;;;29.74;51.59
1954;BME280;977;42.704;23.354;2022-07-03T13:25:25;95329.56;;;29.80;51.08
1954;BME280;977;42.704;23.354;2022-07-03T13:27:51;95329.94;;;29.73;50.68
1954;BME280;977;42.704;23.354;2022-07-03T13:30:19;95313.84;;;29.73;50.81
1954;BME280;977;42.704;23.354;2022-07-03T13:32:45;95302.91;;;29.70;50.38
1954;BME280;977;42.704;23.354;2022-07-03T13:35:11;95332.44;;;29.51;50.53
1954;BME280;977;42.704;23.354;2022-07-03T13:37:37;95310.06;;;29.23;51.64
1954;BME280;977;42.704;23.354;2022-07-03T13:40:04;95314.47;;;29.33;51.86
1954;BME280;977;42.704;23.354;2022-07-03T13:42:30;95322.28;;;29.48;51.08
1954;BME280;977;42.704;23.354;2022-07-03T13:44:56;95307.94;;;29.39;51.75
1954;BME280;977;42.704;23.354;2022-07-03T13:47:22;95318.09;;;29.42;52.21
1954;BME280;977;42.704;23.354;2022-07-03T13:49:48;95309.16;;;29.46;52.07
1954;BME280;977;42.704;23.354;2022-07-03T13:52:14;95296.94;;;29.73;51.30
1954;BME280;977;42.704;23.354;2022-07-03T13:54:55;95302.75;;;29.94;50.81
1954;BME280;977;42.704;23.354;2022-07-03T13:57:20;95298.41;;;29.98;50.67
1954;BME280;977;42.704;23.354;2022-07-03T13:59:48;95300.97;;;29.89;49.95
1954;BME280;977;42.704;23.354;2022-07-03T14:02:15;95288.97;;;29.68;50.36
1954;BME280;977;42.704;23.354;2022-07-03T14:04:41;95285.31;;;29.45;50.51
1954;BME280;977;42.704;23.354;2022-07-03T14:07:06;95290.56;;;29.55;51.12
1954;BME280;977;42.704;23.354;2022-07-03T14:09:32;95282.91;;;29.62;50.33
1954;BME280;977;42.704;23.354;2022-07-03T14:11:58;95287.41;;;29.48;50.29
1954;BME280;977;42.704;23.354;2022-07-03T14:14:25;95277.19;;;29.50;50.28
1954;BME280;977;42.704;23.354;2022-07-03T14:16:51;95276.78;;;29.43;50.59
1954;BME280;977;42.704;23.354;2022-07-03T14:19:17;95278.44;;;29.39;50.30
1954;BME280;977;42.704;23.354;2022-07-03T14:21:46;95282.00;;;29.34;50.62
1954;BME280;977;42.704;23.354;2022-07-03T14:24:14;95280.50;;;29.28;49.20
1954;BME280;977;42.704;23.354;2022-07-03T14:26:42;95295.19;;;29.31;49.37
1954;BME280;977;42.704;23.354;2022-07-03T14:29:29;95294.03;;;29.37;49.77
1954;BME280;977;42.704;23.354;2022-07-03T14:32:13;95306.06;;;29.39;50.41
1954;BME280;977;42.704;23.354;2022-07-03T14:34:58;95294.63;;;29.34;49.26
1954;BME280;977;42.704;23.354;2022-07-03T14:37:26;95306.84;;;29.40;48.94
1954;BME280;977;42.704;23.354;2022-07-03T14:39:57;95299.97;;;29.34;48.98